sensor_id;sensor_type;location;lat;lon;timestamp;temperature;humidity
15341;DHT22;7770;52.158;5.372;2023-06-04T00:01:17;13.20;99.90
15341;DHT22;7770;52.158;5.372;2023-06-04T00:04:03;13.20;99.90
15341;DHT22;7770;52.158;5.372;2023-06-04T00:06:49;13.20;99.90
15341;DHT22;7770;52.158;5.372;2023-06-04T00:09:35;13.20;99.90
15341;DHT22;7770;52.158;5.372;2023-06-04T00:12:21;13.10;99.90
15341;DHT22;7770;52.158;5.372;2023-06-04T00:15:07;13.00;99.90
15341;DHT22;7770;52.158;5.372;2023-06-04T00:17:53;13.00;99.90
15341;DHT22;7770;52.158;5.372;2023-06-04T00:20:42;13.00;99.90
15341;DHT22;7770;52.158;5.372;2023-06-04T00:23:28;13.00;99.90
15341;DHT22;7770;52.158;5.372;2023-06-04T00:26:14;12.90;99.90
15341;DHT22;7770;52.158;5.372;2023-06-04T00:29:00;12.90;99.90
15341;DHT22;7770;52.158;5.372;2023-06-04T00:31:47;12.80;99.90
15341;DHT22;7770;52.158;5.372;2023-06-04T00:34:33;12.70;99.90
15341;DHT22;7770;52.158;5.372;2023-06-04T00:37:19;12.80;99.90
15341;DHT22;7770;52.158;5.372;2023-06-04T00:40:06;12.70;99.90
15341;DHT22;7770;52.158;5.372;2023-06-04T00:42:52;12.70;99.90
15341;DHT22;7770;52.158;5.372;2023-06-04T00:45:41;12.60;99.90
15341;DHT22;7770;52.158;5.372;2023-06-04T00:48:27;12.60;99.90
15341;DHT22;7770;52.158;5.372;2023-06-04T00:51:13;12.60;99.90
15341;DHT22;7770;52.158;5.372;2023-06-04T00:54:02;12.50;99.90
15341;DHT22;7770;52.158;5.372;2023-06-04T00:56:54;12.50;99.90
15341;DHT22;7770;52.158;5.372;2023-06-04T00:59:40;12.50;99.90
15341;DHT22;7770;52.158;5.372;2023-06-04T01:02:27;12.50;99.90
15341;DHT22;7770;52.158;5.372;2023-06-04T01:05:48;12.50;99.90
15341;DHT22;7770;52.158;5.372;2023-06-04T01:08:39;12.40;99.90
15341;DHT22;7770;52.158;5.372;2023-06-04T01:14:21;12.30;99.90
15341;DHT22;7770;52.158;5.372;2023-06-04T01:23:47;12.20;99.90
15341;DHT22;7770;52.158;5.372;2023-06-04T01:26:43;12.20;99.90
15341;DHT22;7770;52.158;5.372;2023-06-04T01:29:29;12.20;99.90
15341;DHT22;7770;52.158;5.372;2023-06-04T01:32:17;12.10;99.90
15341;DHT22;7770;52.158;5.372;2023-06-04T01:35:08;12.10;99.90
15341;DHT22;7770;52.158;5.372;2023-06-04T01:37:55;12.10;99.90
15341;DHT22;7770;52.158;5.372;2023-06-04T01:40:41;12.10;99.90
15341;DHT22;7770;52.158;5.372;2023-06-04T01:43:28;12.00;99.90
15341;DHT22;7770;52.158;5.372;2023-06-04T01:46:14;12.00;99.90
15341;DHT22;7770;52.158;5.372;2023-06-04T01:49:00;12.00;99.90
15341;DHT22;7770;52.158;5.372;2023-06-04T01:51:46;11.90;99.90
15341;DHT22;7770;52.158;5.372;2023-06-04T01:54:32;11.90;99.90
15341;DHT22;7770;52.158;5.372;2023-06-04T01:57:21;11.90;99.90
15341;DHT22;7770;52.158;5.372;2023-06-04T02:00:08;11.90;99.90
15341;DHT22;7770;52.158;5.372;2023-06-04T02:02:56;11.80;99.90
15341;DHT22;7770;52.158;5.372;2023-06-04T02:05:42;11.80;99.90
15341;DHT22;7770;52.158;5.372;2023-06-04T02:08:30;11.80;99.90
15341;DHT22;7770;52.158;5.372;2023-06-04T02:11:16;11.80;99.90
15341;DHT22;7770;52.158;5.372;2023-06-04T02:14:02;11.70;99.90
15341;DHT22;7770;52.158;5.372;2023-06-04T02:16:48;11.80;99.90
15341;DHT22;7770;52.158;5.372;2023-06-04T02:19:35;11.70;99.90
15341;DHT22;7770;52.158;5.372;2023-06-04T02:22:22;11.70;99.90
15341;DHT22;7770;52.158;5.372;2023-06-04T02:25:08;11.60;99.90
15341;DHT22;7770;52.158;5.372;2023-06-04T02:27:54;11.60;99.90
15341;DHT22;7770;52.158;5.372;2023-06-04T02:30:41;11.50;99.90
15341;DHT22;7770;52.158;5.372;2023-06-04T02:33:27;11.50;99.90
15341;DHT22;7770;52.158;5.372;2023-06-04T02:36:13;11.50;99.90
15341;DHT22;7770;52.158;5.372;2023-06-04T02:38:59;11.50;99.90
15341;DHT22;7770;52.158;5.372;2023-06-04T02:41:46;11.40;99.90
15341;DHT22;7770;52.158;5.372;2023-06-04T02:44:32;11.40;99.90
15341;DHT22;7770;52.158;5.372;2023-06-04T02:47:18;11.40;99.90
15341;DHT22;7770;52.158;5.372;2023-06-04T02:50:05;11.40;99.90
15341;DHT22;7770;52.158;5.372;2023-06-04T02:52:51;11.40;99.90
15341;DHT22;7770;52.158;5.372;2023-06-04T02:55:37;11.40;99.90
15341;DHT22;7770;52.158;5.372;2023-06-04T02:58:25;11.30;99.90
15341;DHT22;7770;52.158;5.372;2023-06-04T03:01:18;11.30;99.90
15341;DHT22;7770;52.158;5.372;2023-06-04T03:04:05;11.30;99.90
15341;DHT22;7770;52.158;5.372;2023-06-04T03:06:55;11.30;99.90
15341;DHT22;7770;52.158;5.372;2023-06-04T03:09:43;11.30;99.90
15341;DHT22;7770;52.158;5.372;2023-06-04T03:12:29;11.20;99.90
15341;DHT22;7770;52.158;5.372;2023-06-04T03:15:15;11.20;99.90
15341;DHT22;7770;52.158;5.372;2023-06-04T03:18:01;11.20;99.90
15341;DHT22;7770;52.158;5.372;2023-06-04T03:20:47;11.20;99.90
15341;DHT22;7770;52.158;5.372;2023-06-04T03:23:34;11.10;99.90
15341;DHT22;7770;52.158;5.372;2023-06-04T03:26:21;11.10;99.90
15341;DHT22;7770;52.158;5.372;2023-06-04T03:29:07;11.20;99.90
15341;DHT22;7770;52.158;5.372;2023-06-04T03:31:53;11.20;99.90
15341;DHT22;7770;52.158;5.372;2023-06-04T03:34:39;11.20;99.90
15341;DHT22;7770;52.158;5.372;2023-06-04T03:37:25;11.20;99.90
15341;DHT22;7770;52.158;5.372;2023-06-04T03:40:12;11.20;99.90
15341;DHT22;7770;52.158;5.372;2023-06-04T03:42:59;11.10;99.90
15341;DHT22;7770;52.158;5.372;2023-06-04T03:45:46;11.10;99.90
15341;DHT22;7770;52.158;5.372;2023-06-04T03:48:32;11.10;99.90
15341;DHT22;7770;52.158;5.372;2023-06-04T03:51:18;11.10;99.90
15341;DHT22;7770;52.158;5.372;2023-06-04T03:54:04;11.00;99.90
15341;DHT22;7770;52.158;5.372;2023-06-04T03:56:50;11.00;99.90
15341;DHT22;7770;52.158;5.372;2023-06-04T03:59:36;10.90;99.90
15341;DHT22;7770;52.158;5.372;2023-06-04T04:02:22;11.00;99.90
15341;DHT22;7770;52.158;5.372;2023-06-04T04:05:08;11.00;99.90
15341;DHT22;7770;52.158;5.372;2023-06-04T04:07:54;11.00;99.90
15341;DHT22;7770;52.158;5.372;2023-06-04T04:10:40;11.10;99.90
15341;DHT22;7770;52.158;5.372;2023-06-04T04:13:27;11.10;99.90
15341;DHT22;7770;52.158;5.372;2023-06-04T04:16:13;11.10;99.90
15341;DHT22;7770;52.158;5.372;2023-06-04T04:18:59;11.20;99.90
15341;DHT22;7770;52.158;5.372;2023-06-04T04:21:45;11.20;99.90
15341;DHT22;7770;52.158;5.372;2023-06-04T04:24:34;11.20;99.90
15341;DHT22;7770;52.158;5.372;2023-06-04T04:27:21;11.20;99.90
15341;DHT22;7770;52.158;5.372;2023-06-04T04:30:08;11.20;99.90
15341;DHT22;7770;52.158;5.372;2023-06-04T04:32:55;11.20;99.90
15341;DHT22;7770;52.158;5.372;2023-06-04T04:35:41;11.30;99.90
15341;DHT22;7770;52.158;5.372;2023-06-04T04:38:28;11.40;99.90
15341;DHT22;7770;52.158;5.372;2023-06-04T04:41:14;11.50;99.90
15341;DHT22;7770;52.158;5.372;2023-06-04T04:44:04;11.60;99.90
15341;DHT22;7770;52.158;5.372;2023-06-04T04:46:50;11.70;99.90
15341;DHT22;7770;52.158;5.372;2023-06-04T04:49:36;11.80;99.90
15341;DHT22;7770;52.158;5.372;2023-06-04T04:52:22;11.90;99.90
15341;DHT22;7770;52.158;5.372;2023-06-04T04:55:09;12.10;99.90
15341;DHT22;7770;52.158;5.372;2023-06-04T04:57:55;12.20;99.90
15341;DHT22;7770;52.158;5.372;2023-06-04T05:00:41;12.30;99.90
15341;DHT22;7770;52.158;5.372;2023-06-04T05:03:27;12.40;99.90
15341;DHT22;7770;52.158;5.372;2023-06-04T05:06:13;12.50;99.90
15341;DHT22;7770;52.158;5.372;2023-06-04T05:08:59;12.50;99.90
15341;DHT22;7770;52.158;5.372;2023-06-04T05:11:45;12.60;99.90
15341;DHT22;7770;52.158;5.372;2023-06-04T05:14:31;12.70;99.90
15341;DHT22;7770;52.158;5.372;2023-06-04T05:17:17;12.80;99.90
15341;DHT22;7770;52.158;5.372;2023-06-04T05:20:07;13.20;99.90
15341;DHT22;7770;52.158;5.372;2023-06-04T05:22:57;13.90;99.90
15341;DHT22;7770;52.158;5.372;2023-06-04T05:25:43;14.70;99.90
15341;DHT22;7770;52.158;5.372;2023-06-04T05:28:29;15.90;99.90
15341;DHT22;7770;52.158;5.372;2023-06-04T05:31:15;16.70;99.90
15341;DHT22;7770;52.158;5.372;2023-06-04T05:34:03;16.90;99.90
15341;DHT22;7770;52.158;5.372;2023-06-04T05:36:50;17.50;99.90
15341;DHT22;7770;52.158;5.372;2023-06-04T05:39:36;17.90;99.90
15341;DHT22;7770;52.158;5.372;2023-06-04T05:42:23;18.40;99.20
15341;DHT22;7770;52.158;5.372;2023-06-04T05:45:10;18.80;98.40
15341;DHT22;7770;52.158;5.372;2023-06-04T05:47:56;18.70;98.20
15341;DHT22;7770;52.158;5.372;2023-06-04T05:50:42;19.40;98.30
15341;DHT22;7770;52.158;5.372;2023-06-04T05:53:28;19.80;97.30
15341;DHT22;7770;52.158;5.372;2023-06-04T05:56:14;20.20;96.30
15341;DHT22;7770;52.158;5.372;2023-06-04T05:59:00;19.80;96.10
15341;DHT22;7770;52.158;5.372;2023-06-04T06:01:46;19.10;96.60
15341;DHT22;7770;52.158;5.372;2023-06-04T06:04:33;19.20;96.40
15341;DHT22;7770;52.158;5.372;2023-06-04T06:07:19;18.80;96.40
15341;DHT22;7770;52.158;5.372;2023-06-04T06:10:06;17.60;98.50
15341;DHT22;7770;52.158;5.372;2023-06-04T06:12:52;16.80;99.20
15341;DHT22;7770;52.158;5.372;2023-06-04T06:15:38;16.60;99.90
15341;DHT22;7770;52.158;5.372;2023-06-04T06:18:25;17.00;99.70
15341;DHT22;7770;52.158;5.372;2023-06-04T06:21:11;17.60;98.70
15341;DHT22;7770;52.158;5.372;2023-06-04T06:23:57;18.50;97.30
15341;DHT22;7770;52.158;5.372;2023-06-04T06:26:43;18.70;96.80
15341;DHT22;7770;52.158;5.372;2023-06-04T06:29:29;18.00;97.40
15341;DHT22;7770;52.158;5.372;2023-06-04T06:32:15;18.20;97.30
15341;DHT22;7770;52.158;5.372;2023-06-04T06:35:01;17.80;97.70
15341;DHT22;7770;52.158;5.372;2023-06-04T06:37:47;17.20;98.00
15341;DHT22;7770;52.158;5.372;2023-06-04T06:40:33;16.90;98.40
15341;DHT22;7770;52.158;5.372;2023-06-04T06:43:19;17.20;98.50
15341;DHT22;7770;52.158;5.372;2023-06-04T06:46:05;17.40;98.80
15341;DHT22;7770;52.158;5.372;2023-06-04T06:48:52;17.10;98.30
15341;DHT22;7770;52.158;5.372;2023-06-04T06:51:38;17.20;98.30
15341;DHT22;7770;52.158;5.372;2023-06-04T06:54:24;17.10;98.90
15341;DHT22;7770;52.158;5.372;2023-06-04T06:57:10;17.10;99.80
15341;DHT22;7770;52.158;5.372;2023-06-04T06:59:56;17.20;99.90
15341;DHT22;7770;52.158;5.372;2023-06-04T07:02:42;17.30;99.60
15341;DHT22;7770;52.158;5.372;2023-06-04T07:05:28;17.10;99.30
15341;DHT22;7770;52.158;5.372;2023-06-04T07:08:14;17.10;99.90
15341;DHT22;7770;52.158;5.372;2023-06-04T07:11:04;16.90;99.70
15341;DHT22;7770;52.158;5.372;2023-06-04T07:13:50;16.90;99.50
15341;DHT22;7770;52.158;5.372;2023-06-04T07:16:36;17.30;98.60
15341;DHT22;7770;52.158;5.372;2023-06-04T07:19:22;17.40;98.50
15341;DHT22;7770;52.158;5.372;2023-06-04T07:22:08;18.00;98.50
15341;DHT22;7770;52.158;5.372;2023-06-04T07:24:54;19.20;97.10
15341;DHT22;7770;52.158;5.372;2023-06-04T07:27:41;20.50;95.80
15341;DHT22;7770;52.158;5.372;2023-06-04T07:30:27;21.30;94.30
15341;DHT22;7770;52.158;5.372;2023-06-04T07:33:13;21.70;93.00
15341;DHT22;7770;52.158;5.372;2023-06-04T07:35:59;23.10;92.70
15341;DHT22;7770;52.158;5.372;2023-06-04T07:38:45;23.50;91.50
15341;DHT22;7770;52.158;5.372;2023-06-04T07:41:31;24.10;91.00
15341;DHT22;7770;52.158;5.372;2023-06-04T07:44:17;24.20;90.50
15341;DHT22;7770;52.158;5.372;2023-06-04T07:47:03;24.70;90.80
15341;DHT22;7770;52.158;5.372;2023-06-04T07:49:50;25.20;89.90
15341;DHT22;7770;52.158;5.372;2023-06-04T07:52:36;25.40;89.50
15341;DHT22;7770;52.158;5.372;2023-06-04T07:55:22;25.50;88.60
15341;DHT22;7770;52.158;5.372;2023-06-04T07:58:08;25.40;90.00
15341;DHT22;7770;52.158;5.372;2023-06-04T08:00:54;25.70;88.10
15341;DHT22;7770;52.158;5.372;2023-06-04T08:03:40;25.50;87.00
15341;DHT22;7770;52.158;5.372;2023-06-04T08:06:27;26.00;88.40
15341;DHT22;7770;52.158;5.372;2023-06-04T08:09:13;26.00;87.00
15341;DHT22;7770;52.158;5.372;2023-06-04T08:11:59;26.50;85.30
15341;DHT22;7770;52.158;5.372;2023-06-04T08:14:45;26.20;87.80
15341;DHT22;7770;52.158;5.372;2023-06-04T08:17:31;26.70;84.50
15341;DHT22;7770;52.158;5.372;2023-06-04T08:20:17;26.70;84.70
15341;DHT22;7770;52.158;5.372;2023-06-04T08:23:03;27.20;84.00
15341;DHT22;7770;52.158;5.372;2023-06-04T08:25:49;27.40;83.20
15341;DHT22;7770;52.158;5.372;2023-06-04T08:28:35;27.90;82.10
15341;DHT22;7770;52.158;5.372;2023-06-04T08:31:24;28.30;81.80
15341;DHT22;7770;52.158;5.372;2023-06-04T08:34:10;28.30;80.20
15341;DHT22;7770;52.158;5.372;2023-06-04T08:36:56;28.30;80.60
15341;DHT22;7770;52.158;5.372;2023-06-04T08:39:42;28.20;78.80
15341;DHT22;7770;52.158;5.372;2023-06-04T08:42:30;27.90;80.60
15341;DHT22;7770;52.158;5.372;2023-06-04T08:45:19;28.40;79.30
15341;DHT22;7770;52.158;5.372;2023-06-04T08:48:10;28.80;80.60
15341;DHT22;7770;52.158;5.372;2023-06-04T08:50:59;29.10;78.80
15341;DHT22;7770;52.158;5.372;2023-06-04T08:53:46;29.00;78.00
15341;DHT22;7770;52.158;5.372;2023-06-04T08:56:36;29.10;77.90
15341;DHT22;7770;52.158;5.372;2023-06-04T08:59:22;28.90;78.50
15341;DHT22;7770;52.158;5.372;2023-06-04T09:02:08;29.30;77.70
15341;DHT22;7770;52.158;5.372;2023-06-04T09:04:54;28.80;77.10
15341;DHT22;7770;52.158;5.372;2023-06-04T09:07:41;28.50;79.20
15341;DHT22;7770;52.158;5.372;2023-06-04T09:10:29;28.90;78.40
15341;DHT22;7770;52.158;5.372;2023-06-04T09:13:17;29.80;78.20
15341;DHT22;7770;52.158;5.372;2023-06-04T09:16:04;29.30;76.50
15341;DHT22;7770;52.158;5.372;2023-06-04T09:18:54;29.80;76.60
15341;DHT22;7770;52.158;5.372;2023-06-04T09:21:55;29.50;75.40
15341;DHT22;7770;52.158;5.372;2023-06-04T09:24:46;29.20;75.80
15341;DHT22;7770;52.158;5.372;2023-06-04T09:27:40;29.30;78.10
15341;DHT22;7770;52.158;5.372;2023-06-04T09:30:26;29.80;75.70
15341;DHT22;7770;52.158;5.372;2023-06-04T09:33:12;30.10;74.50
15341;DHT22;7770;52.158;5.372;2023-06-04T09:35:58;29.40;75.50
15341;DHT22;7770;52.158;5.372;2023-06-04T09:38:45;29.80;73.70
15341;DHT22;7770;52.158;5.372;2023-06-04T09:41:32;30.40;74.80
15341;DHT22;7770;52.158;5.372;2023-06-04T09:44:18;29.60;75.00
15341;DHT22;7770;52.158;5.372;2023-06-04T09:47:04;30.00;74.50
15341;DHT22;7770;52.158;5.372;2023-06-04T09:49:50;30.80;73.90
15341;DHT22;7770;52.158;5.372;2023-06-04T09:52:38;30.90;73.40
15341;DHT22;7770;52.158;5.372;2023-06-04T09:55:25;31.00;73.10
15341;DHT22;7770;52.158;5.372;2023-06-04T09:58:11;31.00;72.90
15341;DHT22;7770;52.158;5.372;2023-06-04T10:01:04;30.40;71.70
15341;DHT22;7770;52.158;5.372;2023-06-04T10:03:51;31.00;72.40
15341;DHT22;7770;52.158;5.372;2023-06-04T10:06:39;31.00;71.10
15341;DHT22;7770;52.158;5.372;2023-06-04T10:09:27;30.80;71.00
15341;DHT22;7770;52.158;5.372;2023-06-04T10:12:14;30.80;70.40
15341;DHT22;7770;52.158;5.372;2023-06-04T10:15:05;31.20;71.40
15341;DHT22;7770;52.158;5.372;2023-06-04T10:17:55;31.10;70.40
15341;DHT22;7770;52.158;5.372;2023-06-04T10:20:42;31.20;69.00
15341;DHT22;7770;52.158;5.372;2023-06-04T10:23:28;30.80;69.50
15341;DHT22;7770;52.158;5.372;2023-06-04T10:26:15;30.50;69.40
15341;DHT22;7770;52.158;5.372;2023-06-04T10:29:02;30.60;71.20
15341;DHT22;7770;52.158;5.372;2023-06-04T10:31:53;31.10;71.50
15341;DHT22;7770;52.158;5.372;2023-06-04T10:34:40;31.30;70.50
15341;DHT22;7770;52.158;5.372;2023-06-04T10:37:26;31.00;71.20
15341;DHT22;7770;52.158;5.372;2023-06-04T10:40:15;30.80;71.80
15341;DHT22;7770;52.158;5.372;2023-06-04T10:43:08;31.10;70.90
15341;DHT22;7770;52.158;5.372;2023-06-04T10:45:55;30.70;69.50
15341;DHT22;7770;52.158;5.372;2023-06-04T10:48:49;31.00;71.10
15341;DHT22;7770;52.158;5.372;2023-06-04T10:51:36;31.00;69.30
15341;DHT22;7770;52.158;5.372;2023-06-04T10:54:24;30.00;70.30
15341;DHT22;7770;52.158;5.372;2023-06-04T10:57:16;29.00;72.20
15341;DHT22;7770;52.158;5.372;2023-06-04T11:00:03;30.30;72.90
15341;DHT22;7770;52.158;5.372;2023-06-04T11:02:55;30.80;71.20
15341;DHT22;7770;52.158;5.372;2023-06-04T11:05:43;28.90;71.90
15341;DHT22;7770;52.158;5.372;2023-06-04T11:08:32;28.90;73.60
15341;DHT22;7770;52.158;5.372;2023-06-04T11:11:18;29.40;73.50
15341;DHT22;7770;52.158;5.372;2023-06-04T11:14:10;29.60;73.30
15341;DHT22;7770;52.158;5.372;2023-06-04T11:17:12;30.30;72.80
15341;DHT22;7770;52.158;5.372;2023-06-04T11:19:59;31.10;72.00
15341;DHT22;7770;52.158;5.372;2023-06-04T11:22:56;30.90;72.50
15341;DHT22;7770;52.158;5.372;2023-06-04T11:25:44;31.00;73.10
15341;DHT22;7770;52.158;5.372;2023-06-04T11:28:31;29.80;71.00
15341;DHT22;7770;52.158;5.372;2023-06-04T11:31:18;30.50;72.60
15341;DHT22;7770;52.158;5.372;2023-06-04T11:34:04;31.00;73.00
15341;DHT22;7770;52.158;5.372;2023-06-04T11:36:50;31.10;73.70
15341;DHT22;7770;52.158;5.372;2023-06-04T11:39:38;30.80;71.90
15341;DHT22;7770;52.158;5.372;2023-06-04T11:42:26;30.70;73.30
15341;DHT22;7770;52.158;5.372;2023-06-04T11:45:14;30.20;73.20
15341;DHT22;7770;52.158;5.372;2023-06-04T11:48:01;29.80;73.90
15341;DHT22;7770;52.158;5.372;2023-06-04T11:50:50;29.60;75.30
15341;DHT22;7770;52.158;5.372;2023-06-04T11:53:37;29.30;73.80
15341;DHT22;7770;52.158;5.372;2023-06-04T11:56:24;29.20;74.10
15341;DHT22;7770;52.158;5.372;2023-06-04T11:59:18;29.30;76.20
15341;DHT22;7770;52.158;5.372;2023-06-04T12:02:07;29.00;74.70
15341;DHT22;7770;52.158;5.372;2023-06-04T12:04:53;29.30;74.80
15341;DHT22;7770;52.158;5.372;2023-06-04T12:07:39;28.20;74.00
15341;DHT22;7770;52.158;5.372;2023-06-04T12:10:26;28.20;76.60
15341;DHT22;7770;52.158;5.372;2023-06-04T12:13:14;28.80;75.60
15341;DHT22;7770;52.158;5.372;2023-06-04T12:16:00;28.30;78.00
15341;DHT22;7770;52.158;5.372;2023-06-04T12:18:46;28.30;77.00
15341;DHT22;7770;52.158;5.372;2023-06-04T12:21:34;28.10;75.60
15341;DHT22;7770;52.158;5.372;2023-06-04T12:24:20;28.30;76.40
15341;DHT22;7770;52.158;5.372;2023-06-04T12:27:08;28.10;77.10
15341;DHT22;7770;52.158;5.372;2023-06-04T12:29:55;27.10;75.90
15341;DHT22;7770;52.158;5.372;2023-06-04T12:32:52;27.10;76.20
15341;DHT22;7770;52.158;5.372;2023-06-04T12:35:38;27.70;76.60
15341;DHT22;7770;52.158;5.372;2023-06-04T12:38:24;27.60;77.60
15341;DHT22;7770;52.158;5.372;2023-06-04T12:41:10;27.80;76.40
15341;DHT22;7770;52.158;5.372;2023-06-04T12:43:56;27.80;78.60
15341;DHT22;7770;52.158;5.372;2023-06-04T12:46:43;27.40;77.20
15341;DHT22;7770;52.158;5.372;2023-06-04T12:49:29;27.30;78.00
15341;DHT22;7770;52.158;5.372;2023-06-04T12:52:16;27.50;79.20
15341;DHT22;7770;52.158;5.372;2023-06-04T12:55:03;27.40;76.60
15341;DHT22;7770;52.158;5.372;2023-06-04T12:57:49;26.20;77.40
15341;DHT22;7770;52.158;5.372;2023-06-04T13:00:35;26.00;80.40
15341;DHT22;7770;52.158;5.372;2023-06-04T13:03:21;26.20;81.10
15341;DHT22;7770;52.158;5.372;2023-06-04T13:06:07;26.10;83.40
15341;DHT22;7770;52.158;5.372;2023-06-04T13:08:53;26.10;84.40
15341;DHT22;7770;52.158;5.372;2023-06-04T13:11:41;25.80;85.70
15341;DHT22;7770;52.158;5.372;2023-06-04T13:14:28;25.80;86.90
15341;DHT22;7770;52.158;5.372;2023-06-04T13:17:18;25.70;88.20
15341;DHT22;7770;52.158;5.372;2023-06-04T13:20:05;25.60;87.50
15341;DHT22;7770;52.158;5.372;2023-06-04T13:22:51;25.70;88.50
15341;DHT22;7770;52.158;5.372;2023-06-04T13:25:38;25.50;87.10
15341;DHT22;7770;52.158;5.372;2023-06-04T13:28:24;25.40;86.60
15341;DHT22;7770;52.158;5.372;2023-06-04T13:31:10;25.00;90.00
15341;DHT22;7770;52.158;5.372;2023-06-04T13:33:56;25.00;88.50
15341;DHT22;7770;52.158;5.372;2023-06-04T13:36:42;25.00;88.10
15341;DHT22;7770;52.158;5.372;2023-06-04T13:39:28;25.00;89.60
15341;DHT22;7770;52.158;5.372;2023-06-04T13:42:14;25.00;88.70
15341;DHT22;7770;52.158;5.372;2023-06-04T13:45:00;24.90;88.80
15341;DHT22;7770;52.158;5.372;2023-06-04T13:47:47;25.00;88.50
15341;DHT22;7770;52.158;5.372;2023-06-04T13:50:34;24.90;89.10
15341;DHT22;7770;52.158;5.372;2023-06-04T13:53:20;24.70;87.90
15341;DHT22;7770;52.158;5.372;2023-06-04T13:56:06;24.90;88.90
15341;DHT22;7770;52.158;5.372;2023-06-04T13:58:52;24.70;88.90
15341;DHT22;7770;52.158;5.372;2023-06-04T14:01:39;24.60;90.20
15341;DHT22;7770;52.158;5.372;2023-06-04T14:04:25;24.60;89.40
15341;DHT22;7770;52.158;5.372;2023-06-04T14:07:11;24.50;89.30
15341;DHT22;7770;52.158;5.372;2023-06-04T14:09:57;24.40;89.30
15341;DHT22;7770;52.158;5.372;2023-06-04T14:12:43;24.00;90.30
15341;DHT22;7770;52.158;5.372;2023-06-04T14:15:30;23.60;90.00
15341;DHT22;7770;52.158;5.372;2023-06-04T14:18:16;23.80;90.50
15341;DHT22;7770;52.158;5.372;2023-06-04T14:21:02;23.80;90.30
15341;DHT22;7770;52.158;5.372;2023-06-04T14:23:48;23.60;90.00
15341;DHT22;7770;52.158;5.372;2023-06-04T14:26:36;23.80;90.00
15341;DHT22;7770;52.158;5.372;2023-06-04T14:29:22;23.70;90.20
15341;DHT22;7770;52.158;5.372;2023-06-04T14:32:08;23.70;90.50
15341;DHT22;7770;52.158;5.372;2023-06-04T14:34:54;23.60;90.10
15341;DHT22;7770;52.158;5.372;2023-06-04T14:37:41;23.70;90.60
15341;DHT22;7770;52.158;5.372;2023-06-04T14:40:27;23.40;90.30
15341;DHT22;7770;52.158;5.372;2023-06-04T14:43:13;23.40;90.30
15341;DHT22;7770;52.158;5.372;2023-06-04T14:45:59;23.60;90.90
15341;DHT22;7770;52.158;5.372;2023-06-04T14:48:45;23.50;90.30
15341;DHT22;7770;52.158;5.372;2023-06-04T14:51:31;23.30;91.10
15341;DHT22;7770;52.158;5.372;2023-06-04T14:54:17;23.40;91.00
15341;DHT22;7770;52.158;5.372;2023-06-04T14:57:03;23.40;90.90
15341;DHT22;7770;52.158;5.372;2023-06-04T14:59:49;23.20;91.00
15341;DHT22;7770;52.158;5.372;2023-06-04T15:02:35;23.20;91.20
15341;DHT22;7770;52.158;5.372;2023-06-04T15:05:21;23.20;91.30
15341;DHT22;7770;52.158;5.372;2023-06-04T15:08:07;23.10;91.60
15341;DHT22;7770;52.158;5.372;2023-06-04T15:10:54;23.20;91.50
15341;DHT22;7770;52.158;5.372;2023-06-04T15:13:40;23.00;91.30
15341;DHT22;7770;52.158;5.372;2023-06-04T15:16:26;22.90;91.70
15341;DHT22;7770;52.158;5.372;2023-06-04T15:19:12;22.90;92.20
15341;DHT22;7770;52.158;5.372;2023-06-04T15:21:58;22.90;92.40
15341;DHT22;7770;52.158;5.372;2023-06-04T15:24:44;23.00;92.10
15341;DHT22;7770;52.158;5.372;2023-06-04T15:27:30;22.80;92.20
15341;DHT22;7770;52.158;5.372;2023-06-04T15:30:16;22.70;92.20
15341;DHT22;7770;52.158;5.372;2023-06-04T15:33:03;22.60;92.40
15341;DHT22;7770;52.158;5.372;2023-06-04T15:35:48;22.60;92.70
15341;DHT22;7770;52.158;5.372;2023-06-04T15:38:35;22.50;92.70
15341;DHT22;7770;52.158;5.372;2023-06-04T15:41:21;22.40;92.60
15341;DHT22;7770;52.158;5.372;2023-06-04T15:44:07;22.50;93.30
15341;DHT22;7770;52.158;5.372;2023-06-04T15:46:53;22.50;92.70
15341;DHT22;7770;52.158;5.372;2023-06-04T15:49:39;22.40;92.90
15341;DHT22;7770;52.158;5.372;2023-06-04T15:52:25;22.40;93.20
15341;DHT22;7770;52.158;5.372;2023-06-04T15:55:11;22.40;93.30
15341;DHT22;7770;52.158;5.372;2023-06-04T15:57:57;22.20;93.50
15341;DHT22;7770;52.158;5.372;2023-06-04T16:00:43;22.20;93.20
15341;DHT22;7770;52.158;5.372;2023-06-04T16:03:29;22.10;93.60
15341;DHT22;7770;52.158;5.372;2023-06-04T16:06:15;22.20;93.90
15341;DHT22;7770;52.158;5.372;2023-06-04T16:09:02;22.20;94.00
15341;DHT22;7770;52.158;5.372;2023-06-04T16:11:49;22.20;94.20
15341;DHT22;7770;52.158;5.372;2023-06-04T16:14:35;22.00;94.20
15341;DHT22;7770;52.158;5.372;2023-06-04T16:17:21;21.90;94.80
15341;DHT22;7770;52.158;5.372;2023-06-04T16:20:07;21.90;95.00
15341;DHT22;7770;52.158;5.372;2023-06-04T16:22:54;21.70;95.20
15341;DHT22;7770;52.158;5.372;2023-06-04T16:25:40;21.80;95.60
15341;DHT22;7770;52.158;5.372;2023-06-04T16:28:26;21.80;95.40
15341;DHT22;7770;52.158;5.372;2023-06-04T16:31:13;21.60;95.60
15341;DHT22;7770;52.158;5.372;2023-06-04T16:33:59;21.60;95.80
15341;DHT22;7770;52.158;5.372;2023-06-04T16:36:45;21.60;96.40
15341;DHT22;7770;52.158;5.372;2023-06-04T16:39:31;21.60;96.20
15341;DHT22;7770;52.158;5.372;2023-06-04T16:42:17;21.50;96.60
15341;DHT22;7770;52.158;5.372;2023-06-04T16:45:03;21.40;96.80
15341;DHT22;7770;52.158;5.372;2023-06-04T16:47:49;21.50;97.00
15341;DHT22;7770;52.158;5.372;2023-06-04T16:50:35;21.30;97.50
15341;DHT22;7770;52.158;5.372;2023-06-04T16:53:22;21.30;97.40
15341;DHT22;7770;52.158;5.372;2023-06-04T16:56:08;21.20;97.30
15341;DHT22;7770;52.158;5.372;2023-06-04T16:58:55;21.20;97.20
15341;DHT22;7770;52.158;5.372;2023-06-04T17:01:41;21.10;97.90
15341;DHT22;7770;52.158;5.372;2023-06-04T17:04:27;20.90;98.10
15341;DHT22;7770;52.158;5.372;2023-06-04T17:07:13;20.80;98.00
15341;DHT22;7770;52.158;5.372;2023-06-04T17:09:59;20.80;98.50
15341;DHT22;7770;52.158;5.372;2023-06-04T17:12:45;20.80;98.20
15341;DHT22;7770;52.158;5.372;2023-06-04T17:15:31;20.70;98.30
15341;DHT22;7770;52.158;5.372;2023-06-04T17:18:17;20.60;98.80
15341;DHT22;7770;52.158;5.372;2023-06-04T17:21:05;20.60;99.10
15341;DHT22;7770;52.158;5.372;2023-06-04T17:23:51;20.50;99.30
15341;DHT22;7770;52.158;5.372;2023-06-04T17:26:37;20.40;99.80
15341;DHT22;7770;52.158;5.372;2023-06-04T17:29:23;20.30;99.90
15341;DHT22;7770;52.158;5.372;2023-06-04T17:32:10;20.30;99.90
15341;DHT22;7770;52.158;5.372;2023-06-04T17:34:57;20.30;99.20
15341;DHT22;7770;52.158;5.372;2023-06-04T17:37:44;20.30;98.40
15341;DHT22;7770;52.158;5.372;2023-06-04T17:40:30;20.40;98.10
15341;DHT22;7770;52.158;5.372;2023-06-04T17:43:16;20.30;98.40
15341;DHT22;7770;52.158;5.372;2023-06-04T17:46:02;20.30;98.40
15341;DHT22;7770;52.158;5.372;2023-06-04T17:48:48;20.20;98.30
15341;DHT22;7770;52.158;5.372;2023-06-04T17:51:35;20.20;98.70
15341;DHT22;7770;52.158;5.372;2023-06-04T17:54:22;20.10;98.90
15341;DHT22;7770;52.158;5.372;2023-06-04T17:57:08;19.90;99.00
15341;DHT22;7770;52.158;5.372;2023-06-04T17:59:54;19.80;99.40